Time;durP1;ratioP1;P1;durP2;ratioP2;P2;SDS_P1;SDS_P2;PMS_P1;PMS_P2;Temp;Humidity;BMP_temperature;BMP_pressure;BME280_temperature;BME280_humidity;BME280_pressure;Samples;Min_cycle;Max_cycle;Signal;HPM_P1;HPM_P2
2022/01/12 00:00:32;;;;;;;7.63;4.07;;;;;;;;;;20920348;28;20107;-59
2022/01/12 00:10:34;;;;;;;8.77;3.45;;;;;;;;;;20919721;28;20084;-58
2022/01/12 00:20:35;;;;;;;9.25;4.65;;;;;;;;;;20918374;28;20053;-60
2022/01/12 00:41:04;;;;;;;7.68;4.35;;;;;;;;;;20915756;28;20057;-59
2022/01/12 00:51:06;;;;;;;4.28;2.67;;;;;;;;;;20916400;28;20045;-60
2022/01/12 01:01:07;;;;;;;4.97;2.83;;;;;;;;;;20914758;28;20178;-59
2022/01/12 01:11:09;;;;;;;3.45;2.45;;;;;;;;;;20914178;28;20045;-61
2022/01/12 01:31:34;;;;;;;6.03;2.20;;;;;;;;;;20911658;28;20080;-61
2022/01/12 01:41:39;;;;;;;6.40;2.40;;;;;;;;;;20913089;28;20440;-59
2022/01/12 02:02:02;;;;;;;5.07;2.30;;;;;;;;;;20911599;28;20057;-59
2022/01/12 02:12:05;;;;;;;3.75;2.35;;;;;;;;;;20911727;28;20049;-59
2022/01/12 02:43:39;;;;;;;4.57;3.03;;;;;;;;;;20910789;28;20489;-57
2022/01/12 02:53:50;;;;;;;5.88;2.67;;;;;;;;;;20909896;28;20056;-59
2022/01/12 03:03:59;;;;;;;3.45;2.08;;;;;;;;;;20918082;28;20053;-59
2022/01/12 03:14:06;;;;;;;4.28;2.60;;;;;;;;;;20923879;28;20236;-58
2022/01/12 03:24:11;;;;;;;5.28;3.08;;;;;;;;;;20923370;28;20057;-58
2022/01/12 03:34:27;;;;;;;3.40;1.77;;;;;;;;;;20923227;28;20175;-58
2022/01/12 03:44:29;;;;;;;3.17;2.05;;;;;;;;;;20921538;28;20554;-60
2022/01/12 03:54:32;;;;;;;2.80;2.30;;;;;;;;;;20919010;28;20105;-59
2022/01/12 04:04:52;;;;;;;2.78;2.00;;;;;;;;;;20919686;28;20049;-58
2022/01/12 04:14:55;;;;;;;2.88;1.92;;;;;;;;;;20918696;28;20049;-58
2022/01/12 04:24:58;;;;;;;3.85;2.65;;;;;;;;;;20919210;28;20139;-58
2022/01/12 04:35:01;;;;;;;2.72;2.10;;;;;;;;;;20917638;28;20491;-59
2022/01/12 04:45:19;;;;;;;4.22;2.47;;;;;;;;;;20916177;28;20049;-58
2022/01/12 04:55:26;;;;;;;3.45;2.38;;;;;;;;;;20915762;28;20056;-59
2022/01/12 05:15:48;;;;;;;5.03;3.05;;;;;;;;;;20914096;28;20049;-57
2022/01/12 05:25:52;;;;;;;4.63;2.67;;;;;;;;;;20913820;28;20460;-57
2022/01/12 05:35:56;;;;;;;5.22;2.88;;;;;;;;;;20912952;28;20081;-59
2022/01/12 05:46:07;;;;;;;4.57;2.78;;;;;;;;;;20913278;28;20052;-60
2022/01/12 05:56:09;;;;;;;4.35;2.83;;;;;;;;;;20911589;28;20127;-58
2022/01/12 06:06:12;;;;;;;6.32;3.13;;;;;;;;;;20911436;28;20094;-59
2022/01/12 06:16:15;;;;;;;6.40;4.13;;;;;;;;;;20911239;28;20053;-58
2022/01/12 06:26:19;;;;;;;5.43;3.58;;;;;;;;;;20911209;28;20512;-58
2022/01/12 06:36:22;;;;;;;6.55;3.63;;;;;;;;;;20914812;28;20485;-58
2022/01/12 06:46:29;;;;;;;6.07;3.58;;;;;;;;;;20924678;28;20056;-58
2022/01/12 06:56:31;;;;;;;6.43;3.65;;;;;;;;;;20924221;28;20107;-59
2022/01/12 07:06:34;;;;;;;5.85;3.58;;;;;;;;;;20922764;28;20068;-59
2022/01/12 07:16:36;;;;;;;5.45;2.85;;;;;;;;;;20923537;28;20059;-60
2022/01/12 07:26:49;;;;;;;6.43;3.03;;;;;;;;;;20923222;28;20456;-60
2022/01/12 07:36:56;;;;;;;4.80;3.10;;;;;;;;;;20920892;28;20390;-59
2022/01/12 07:47:02;;;;;;;4.72;3.05;;;;;;;;;;20920391;28;20421;-59
2022/01/12 07:57:06;;;;;;;6.22;3.30;;;;;;;;;;20920192;28;20471;-60
2022/01/12 08:07:12;;;;;;;6.07;3.60;;;;;;;;;;20919750;28;20064;-59
2022/01/12 08:17:16;;;;;;;6.90;3.78;;;;;;;;;;20918943;28;20045;-59
2022/01/12 08:27:19;;;;;;;6.97;3.83;;;;;;;;;;20918200;28;20101;-61
2022/01/12 08:37:23;;;;;;;9.65;5.10;;;;;;;;;;20916267;28;20083;-59
2022/01/12 08:47:27;;;;;;;8.98;4.60;;;;;;;;;;20916396;28;20052;-59
2022/01/12 08:57:35;;;;;;;8.25;3.28;;;;;;;;;;20915453;28;20420;-60
2022/01/12 09:07:41;;;;;;;9.20;3.37;;;;;;;;;;20915305;28;20107;-59
2022/01/12 09:17:47;;;;;;;2.17;1.20;;;;;;;;;;20913929;28;20385;-58
2022/01/12 09:27:54;;;;;;;2.00;1.23;;;;;;;;;;20914749;28;20501;-61
2022/01/12 09:38:01;;;;;;;4.93;1.20;;;;;;;;;;20913281;28;20412;-58
2022/01/12 09:48:09;;;;;;;3.60;1.05;;;;;;;;;;20913043;28;20543;-59
2022/01/12 09:58:15;;;;;;;1.65;0.85;;;;;;;;;;20910196;28;20049;-57
2022/01/12 10:08:17;;;;;;;2.90;1.00;;;;;;;;;;20913232;28;20091;-58
2022/01/12 10:18:25;;;;;;;4.33;0.90;;;;;;;;;;20928157;28;20045;-58
2022/01/12 10:28:29;;;;;;;4.03;1.10;;;;;;;;;;20927249;28;20139;-55
2022/01/12 10:38:34;;;;;;;1.85;0.52;;;;;;;;;;20926315;28;20505;-56
2022/01/12 10:48:41;;;;;;;2.08;0.77;;;;;;;;;;20922339;28;20084;-61
2022/01/12 10:58:47;;;;;;;3.53;0.93;;;;;;;;;;20921892;28;20056;-57
2022/01/12 11:08:50;;;;;;;2.85;0.80;;;;;;;;;;20866946;28;20055;-57
2022/01/12 11:18:56;;;;;;;1.67;0.60;;;;;;;;;;20888887;28;20528;-57
2022/01/12 11:28:59;;;;;;;1.77;0.80;;;;;;;;;;20870246;28;20160;-56
2022/01/12 11:39:04;;;;;;;1.15;0.60;;;;;;;;;;20866916;28;20045;-56
2022/01/12 11:49:07;;;;;;;4.07;0.90;;;;;;;;;;20865291;28;20049;-55
2022/01/12 11:59:13;;;;;;;7.55;1.10;;;;;;;;;;20859207;28;20418;-54
2022/01/12 12:09:18;;;;;;;2.80;0.80;;;;;;;;;;20836882;28;20057;-58
2022/01/12 12:19:21;;;;;;;2.45;0.82;;;;;;;;;;20836388;28;20057;-58
2022/01/12 12:29:29;;;;;;;2.67;1.20;;;;;;;;;;20855535;28;20505;-57
2022/01/12 12:39:32;;;;;;;2.72;1.00;;;;;;;;;;20831484;28;20145;-59
2022/01/12 12:49:56;;;;;;;1.50;0.80;;;;;;;;;;20832534;28;20061;-56
2022/01/12 13:00:11;;;;;;;1.70;0.68;;;;;;;;;;20830689;28;20493;-55
2022/01/12 13:10:17;;;;;;;1.55;0.70;;;;;;;;;;20830873;28;20049;-56
2022/01/12 13:30:25;;;;;;;1.50;0.60;;;;;;;;;;20846154;28;20053;-53
2022/01/12 13:40:34;;;;;;;3.75;1.10;;;;;;;;;;20829670;28;20120;-55
2022/01/12 13:50:36;;;;;;;3.25;1.15;;;;;;;;;;20829410;28;20053;-59
2022/01/12 14:00:38;;;;;;;2.80;0.82;;;;;;;;;;20830106;28;20049;-59
2022/01/12 14:10:44;;;;;;;3.55;1.10;;;;;;;;;;20830591;28;20108;-59
2022/01/12 14:20:46;;;;;;;2.85;0.88;;;;;;;;;;20830018;28;20069;-59
2022/01/12 14:30:48;;;;;;;4.30;1.20;;;;;;;;;;20828868;28;20060;-60
2022/01/12 14:40:49;;;;;;;1.65;0.80;;;;;;;;;;20829507;28;20045;-58
2022/01/12 14:50:52;;;;;;;1.58;0.95;;;;;;;;;;20829213;28;20049;-60
2022/01/12 15:00:55;;;;;;;15.23;1.85;;;;;;;;;;20837661;28;20660;-59
2022/01/12 15:10:57;;;;;;;1.77;0.80;;;;;;;;;;20842161;28;20046;-58
2022/01/12 15:20:59;;;;;;;4.28;1.60;;;;;;;;;;20842060;28;20049;-59
2022/01/12 15:31:01;;;;;;;2.08;0.88;;;;;;;;;;20841624;28;20065;-59
2022/01/12 15:41:03;;;;;;;1.83;1.25;;;;;;;;;;20839651;28;20052;-58
2022/01/12 15:51:05;;;;;;;2.25;1.05;;;;;;;;;;20863709;28;20128;-56
2022/01/12 16:01:07;;;;;;;1.75;0.90;;;;;;;;;;20919794;28;20095;-59
2022/01/12 16:11:09;;;;;;;2.15;0.93;;;;;;;;;;20920182;28;20084;-57
2022/01/12 16:21:11;;;;;;;3.53;1.13;;;;;;;;;;20920017;28;20105;-59
2022/01/12 16:31:18;;;;;;;3.20;0.80;;;;;;;;;;20919270;28;20057;-60
2022/01/12 16:41:20;;;;;;;3.70;1.50;;;;;;;;;;20918405;28;20132;-59
2022/01/12 16:51:22;;;;;;;8.02;1.40;;;;;;;;;;20915949;28;20045;-59
2022/01/12 17:01:25;;;;;;;13.05;2.78;;;;;;;;;;20916527;28;20057;-58
2022/01/12 17:11:28;;;;;;;3.53;1.55;;;;;;;;;;20915655;28;20124;-61
2022/01/12 17:21:30;;;;;;;4.75;2.15;;;;;;;;;;20914043;28;20053;-59
2022/01/12 17:31:33;;;;;;;8.30;5.03;;;;;;;;;;20912275;28;20048;-59
2022/01/12 17:41:36;;;;;;;5.43;3.10;;;;;;;;;;20912896;28;20056;-59
2022/01/12 17:51:39;;;;;;;9.93;4.95;;;;;;;;;;20912532;28;20076;-58
2022/01/12 18:01:41;;;;;;;9.10;3.13;;;;;;;;;;20913219;28;20099;-59
2022/01/12 18:11:43;;;;;;;8.82;3.50;;;;;;;;;;20911987;28;20515;-59
2022/01/12 18:21:46;;;;;;;9.20;5.65;;;;;;;;;;20911371;28;20052;-59
2022/01/12 18:31:48;;;;;;;10.68;4.25;;;;;;;;;;20917257;28;20405;-59
2022/01/12 18:41:50;;;;;;;7.28;3.15;;;;;;;;;;20927314;28;20500;-65
2022/01/12 18:51:52;;;;;;;7.50;3.47;;;;;;;;;;20927100;28;20056;-59
2022/01/12 19:01:54;;;;;;;7.60;2.55;;;;;;;;;;20924221;28;20091;-58
2022/01/12 19:11:57;;;;;;;8.60;2.75;;;;;;;;;;20924447;28;20045;-60
2022/01/12 19:21:59;;;;;;;12.18;4.70;;;;;;;;;;20923734;28;20060;-58
2022/01/12 19:32:00;;;;;;;8.70;3.53;;;;;;;;;;20924707;28;20044;-60
2022/01/12 19:42:02;;;;;;;5.63;3.65;;;;;;;;;;20921579;28;20080;-59
2022/01/12 19:52:10;;;;;;;5.07;2.28;;;;;;;;;;20921148;28;20380;-59
2022/01/12 20:02:33;;;;;;;18.95;10.43;;;;;;;;;;20921537;28;20049;-58
2022/01/12 20:12:36;;;;;;;6.82;2.20;;;;;;;;;;20921683;28;20484;-60
2022/01/12 20:22:47;;;;;;;6.22;2.75;;;;;;;;;;20919839;28;20087;-60
2022/01/12 20:32:49;;;;;;;6.50;2.95;;;;;;;;;;20919228;28;20102;-59
2022/01/12 20:42:54;;;;;;;5.35;3.17;;;;;;;;;;20918396;28;20056;-58
2022/01/12 20:52:56;;;;;;;5.53;2.85;;;;;;;;;;20915919;28;20057;-59
2022/01/12 21:02:58;;;;;;;5.82;2.70;;;;;;;;;;20915659;28;20045;-59
2022/01/12 21:13:00;;;;;;;5.10;2.78;;;;;;;;;;20915354;28;20044;-60
2022/01/12 21:23:02;;;;;;;5.43;2.30;;;;;;;;;;20914801;28;20084;-59
2022/01/12 21:33:04;;;;;;;5.25;2.50;;;;;;;;;;20914035;28;20053;-58
2022/01/12 21:43:07;;;;;;;4.60;2.33;;;;;;;;;;20912398;28;20048;-60
2022/01/12 21:53:09;;;;;;;4.40;2.70;;;;;;;;;;20912811;28;20052;-57
2022/01/12 22:03:11;;;;;;;6.72;3.05;;;;;;;;;;20913281;28;20055;-59
2022/01/12 22:13:13;;;;;;;6.68;4.05;;;;;;;;;;20939756;28;20044;-59
2022/01/12 22:23:16;;;;;;;13.75;6.90;;;;;;;;;;20939832;28;20059;-58
2022/01/12 22:33:19;;;;;;;6.93;4.10;;;;;;;;;;20939634;28;20052;-59
2022/01/12 22:43:22;;;;;;;10.07;5.75;;;;;;;;;;20939442;28;20054;-60
2022/01/12 22:53:25;;;;;;;13.10;7.35;;;;;;;;;;20940054;28;20069;-58
2022/01/12 23:03:27;;;;;;;12.68;6.78;;;;;;;;;;20937526;28;20113;-59
2022/01/12 23:13:29;;;;;;;10.73;6.18;;;;;;;;;;20938177;28;20080;-59
2022/01/12 23:23:31;;;;;;;11.27;4.80;;;;;;;;;;20924761;28;20088;-57
2022/01/12 23:34:04;;;;;;;8.18;4.38;;;;;;;;;;20923120;28;20059;-58
